createdAt,value
2023-01-08T00:00:54.050Z,90.33
2023-01-08T00:03:22.312Z,101.23
2023-01-08T00:05:50.597Z,89.17
2023-01-08T00:08:19.149Z,108.33
2023-01-08T00:10:56.114Z,99.47
2023-01-08T00:13:24.800Z,98.97
2023-01-08T00:15:53.079Z,92.80
2023-01-08T00:18:21.314Z,94.97
2023-01-08T00:20:49.819Z,96.30
2023-01-08T00:23:20.408Z,91.17
2023-01-08T00:25:49.957Z,102.97
2023-01-08T00:28:18.415Z,98.13
2023-01-08T00:30:46.656Z,98.77
2023-01-08T00:33:14.832Z,95.93
2023-01-08T00:35:43.255Z,102.83
2023-01-08T00:38:11.466Z,92.90
2023-01-08T00:40:40.445Z,87.77
2023-01-08T00:43:10.143Z,89.27
2023-01-08T00:45:38.380Z,97.97
2023-01-08T00:48:07.295Z,100.37
2023-01-08T00:50:35.512Z,96.43
2023-01-08T00:53:04.270Z,96.57
2023-01-08T00:55:32.649Z,94.03
2023-01-08T00:58:00.786Z,86.03
2023-01-08T01:00:30.332Z,87.83
2023-01-08T01:02:58.493Z,93.67
2023-01-08T01:05:26.678Z,83.07
2023-01-08T01:07:54.830Z,98.83
2023-01-08T01:10:22.994Z,88.57
2023-01-08T01:12:51.528Z,95.87
2023-01-08T01:15:20.370Z,97.43
2023-01-08T01:17:49.897Z,99.80
2023-01-08T01:20:18.604Z,93.33
2023-01-08T01:22:46.758Z,92.63
2023-01-08T01:25:14.991Z,96.50
2023-01-08T01:27:43.141Z,103.50
2023-01-08T01:30:12.267Z,92.73
2023-01-08T01:32:40.420Z,85.30
2023-01-08T01:35:10.595Z,101.60
2023-01-08T01:37:39.021Z,82.33
2023-01-08T01:40:08.178Z,82.80
2023-01-08T01:42:44.321Z,86.57
2023-01-08T01:45:18.878Z,87.20
2023-01-08T01:47:49.294Z,75.30
2023-01-08T01:50:23.366Z,75.87
2023-01-08T01:53:00.104Z,75.53
2023-01-08T01:55:28.943Z,73.47
2023-01-08T01:58:02.894Z,78.87
2023-01-08T02:00:31.388Z,78.57
2023-01-08T02:02:59.661Z,76.27
2023-01-08T02:05:35.131Z,75.10
2023-01-08T02:08:09.072Z,74.23
2023-01-08T02:10:44.466Z,65.00
2023-01-08T02:13:20.519Z,66.27
2023-01-08T02:15:56.241Z,60.97
2023-01-08T02:18:30.547Z,69.93
2023-01-08T02:21:04.370Z,67.13
2023-01-08T02:23:39.562Z,72.93
2023-01-08T02:26:14.059Z,63.87
2023-01-08T02:28:46.941Z,71.87
2023-01-08T02:31:17.317Z,70.20
2023-01-08T02:33:45.744Z,61.90
2023-01-08T02:36:29.115Z,67.97
2023-01-08T02:39:19.299Z,67.17
2023-01-08T02:41:58.121Z,58.23
2023-01-08T02:44:35.223Z,63.57
2023-01-08T02:47:06.964Z,51.00
2023-01-08T02:49:39.049Z,59.07
2023-01-08T02:52:09.713Z,58.80
2023-01-08T02:54:39.189Z,57.90
2023-01-08T02:57:13.566Z,52.87
2023-01-08T02:59:44.093Z,57.17
2023-01-08T03:02:13.223Z,56.63
2023-01-08T03:04:50.247Z,54.80
2023-01-08T03:07:18.343Z,58.47
2023-01-08T03:09:47.073Z,62.50
2023-01-08T03:12:21.876Z,61.47
2023-01-08T03:14:58.241Z,40.53
2023-01-08T03:17:31.407Z,48.03
2023-01-08T03:20:06.181Z,51.67
2023-01-08T03:22:38.450Z,56.93
2023-01-08T03:25:08.046Z,60.70
2023-01-08T03:27:43.088Z,56.20
2023-01-08T03:30:12.912Z,57.10
2023-01-08T03:32:44.838Z,65.70
2023-01-08T03:35:16.453Z,59.83
2023-01-08T03:37:48.052Z,58.30
2023-01-08T03:40:21.061Z,57.73
2023-01-08T03:42:50.690Z,50.33
2023-01-08T03:45:19.110Z,58.10
2023-01-08T03:47:48.254Z,46.83
2023-01-08T03:50:21.048Z,57.63
2023-01-08T03:52:49.369Z,52.67
2023-01-08T03:55:17.719Z,50.90
2023-01-08T03:57:45.880Z,55.17
2023-01-08T04:00:16.756Z,55.67
2023-01-08T04:02:45.101Z,50.93
2023-01-08T04:05:13.454Z,54.53
2023-01-08T04:07:41.638Z,50.53
2023-01-08T04:10:10.179Z,39.97
2023-01-08T04:12:38.389Z,44.90
2023-01-08T04:15:07.572Z,42.60
2023-01-08T04:17:37.114Z,40.20
2023-01-08T04:20:06.218Z,42.57
2023-01-08T04:22:34.576Z,40.57
2023-01-08T04:25:02.779Z,38.90
2023-01-08T04:27:30.924Z,38.97
2023-01-08T04:29:59.095Z,41.77
2023-01-08T04:32:27.231Z,37.73
2023-01-08T04:34:56.761Z,31.77
2023-01-08T04:37:24.915Z,34.23
2023-01-08T04:39:53.071Z,29.70
2023-01-08T04:42:21.255Z,41.20
2023-01-08T04:44:49.403Z,38.40
2023-01-08T04:47:17.527Z,33.53
2023-01-08T04:49:45.644Z,32.73
2023-01-08T04:52:15.176Z,36.23
2023-01-08T04:54:43.287Z,24.43
2023-01-08T04:57:11.461Z,32.60
2023-01-08T04:59:39.593Z,33.83
2023-01-08T05:02:08.010Z,32.60
2023-01-08T05:04:36.345Z,36.03
2023-01-08T05:07:05.777Z,32.57
2023-01-08T05:09:35.318Z,33.63
2023-01-08T05:12:03.475Z,30.20
2023-01-08T05:14:31.640Z,28.03
2023-01-08T05:16:59.767Z,35.07
2023-01-08T05:19:27.952Z,33.43
2023-01-08T05:21:56.142Z,31.57
2023-01-08T05:24:24.266Z,35.87
2023-01-08T05:26:53.802Z,30.83
2023-01-08T05:29:22.109Z,35.10
2023-01-08T05:31:50.239Z,30.97
2023-01-08T05:34:18.372Z,36.17
2023-01-08T05:36:46.501Z,35.73
2023-01-08T05:39:14.621Z,41.17
2023-01-08T05:41:42.735Z,34.77
2023-01-08T05:44:12.858Z,36.93
2023-01-08T05:46:41.064Z,40.87
2023-01-08T05:49:09.395Z,37.70
2023-01-08T05:51:37.539Z,41.73
2023-01-08T05:54:05.753Z,32.77
2023-01-08T05:56:33.931Z,31.97
2023-01-08T05:59:02.087Z,31.73
2023-01-08T06:01:31.843Z,36.63
2023-01-08T06:04:00.179Z,40.57
2023-01-08T06:06:28.346Z,33.60
2023-01-08T06:08:56.469Z,35.83
2023-01-08T06:11:24.631Z,34.20
2023-01-08T06:13:52.868Z,42.53
2023-01-08T06:16:22.195Z,30.57
2023-01-08T06:18:51.751Z,36.67
2023-01-08T06:21:19.862Z,34.07
2023-01-08T06:23:48.059Z,34.43
2023-01-08T06:26:16.257Z,39.03
2023-01-08T06:28:44.410Z,35.63
2023-01-08T06:31:12.561Z,29.40
2023-01-08T06:33:57.335Z,25.27
2023-01-08T06:36:26.873Z,24.00
2023-01-08T06:39:05.989Z,31.57
2023-01-08T06:41:34.083Z,23.00
2023-01-08T06:44:02.440Z,36.37
2023-01-08T06:46:30.618Z,30.17
2023-01-08T06:48:58.841Z,25.57
2023-01-08T06:51:28.378Z,30.37
2023-01-08T06:53:56.525Z,22.03
2023-01-08T06:56:24.728Z,23.20
2023-01-08T06:58:52.842Z,19.80
2023-01-08T07:01:23.024Z,23.87
2023-01-08T07:03:51.353Z,25.63
2023-01-08T07:06:21.483Z,29.57
2023-01-08T07:08:51.199Z,23.73
2023-01-08T07:11:19.358Z,26.73
2023-01-08T07:13:47.472Z,28.93
2023-01-08T07:16:16.354Z,26.20
2023-01-08T07:18:44.925Z,27.73
2023-01-08T07:21:13.206Z,24.50
2023-01-08T07:23:42.008Z,21.83
2023-01-08T07:26:11.549Z,27.03
2023-01-08T07:28:39.771Z,29.63
2023-01-08T07:31:08.081Z,25.73
2023-01-08T07:33:36.575Z,29.07
2023-01-08T07:36:05.036Z,26.80
2023-01-08T07:38:33.257Z,23.27
2023-01-08T07:41:01.417Z,28.37
2023-01-08T07:43:31.035Z,26.47
2023-01-08T07:45:59.220Z,20.70
2023-01-08T07:48:27.399Z,22.27
2023-01-08T07:50:55.518Z,31.67
2023-01-08T07:53:23.643Z,23.67
2023-01-08T07:55:51.774Z,25.63
2023-01-08T07:58:19.940Z,27.33
2023-01-08T08:00:49.488Z,30.47
2023-01-08T08:03:17.709Z,28.93
2023-01-08T08:05:45.966Z,20.07
2023-01-08T08:08:14.653Z,29.63
2023-01-08T08:10:43.801Z,15.73
2023-01-08T08:13:12.733Z,21.10
2023-01-08T08:15:41.704Z,27.27
2023-01-08T08:18:11.666Z,23.70
2023-01-08T08:20:40.157Z,23.67
2023-01-08T08:23:09.658Z,28.53
2023-01-08T08:25:38.369Z,20.30
2023-01-08T08:28:07.146Z,29.47
2023-01-08T08:30:40.097Z,24.80
2023-01-08T08:33:12.401Z,24.63
2023-01-08T08:35:40.891Z,21.90
2023-01-08T08:38:09.040Z,20.60
2023-01-08T08:40:37.221Z,19.77
2023-01-08T08:43:05.950Z,26.73
2023-01-08T08:45:34.065Z,26.87
2023-01-08T08:48:02.240Z,33.60
2023-01-08T08:50:31.792Z,22.50
2023-01-08T08:53:00.761Z,20.93
2023-01-08T08:55:29.094Z,21.97
2023-01-08T08:58:03.802Z,25.60
2023-01-08T09:00:31.925Z,25.23
2023-01-08T09:03:00.198Z,24.77
2023-01-08T09:05:28.768Z,29.73
2023-01-08T09:07:58.704Z,23.93
2023-01-08T09:10:26.861Z,17.00
2023-01-08T09:12:55.425Z,19.57
2023-01-08T09:15:24.797Z,26.07
2023-01-08T09:17:56.727Z,20.70
2023-01-08T09:20:25.480Z,22.80
2023-01-08T09:22:53.628Z,29.13
2023-01-08T09:25:23.168Z,28.07
2023-01-08T09:27:51.330Z,26.10
2023-01-08T09:30:19.626Z,26.90
2023-01-08T09:32:47.759Z,27.97
2023-01-08T09:35:15.995Z,23.93
2023-01-08T09:37:44.187Z,20.70
2023-01-08T09:40:17.491Z,23.90
2023-01-08T09:42:53.207Z,28.83
2023-01-08T09:45:28.937Z,25.63
2023-01-08T09:47:59.799Z,26.13
2023-01-08T09:50:30.498Z,22.40
2023-01-08T09:52:58.995Z,25.40
2023-01-08T09:55:29.015Z,18.73
2023-01-08T09:57:58.562Z,24.57
2023-01-08T10:00:30.104Z,23.33
2023-01-08T10:02:58.851Z,28.77
2023-01-08T10:05:28.187Z,27.37
2023-01-08T10:07:56.631Z,21.13
2023-01-08T10:10:29.030Z,29.80
2023-01-08T10:12:59.568Z,28.27
2023-01-08T10:15:28.024Z,32.83
2023-01-08T10:18:03.377Z,22.23
2023-01-08T10:20:32.656Z,25.27
2023-01-08T10:23:11.837Z,20.47
2023-01-08T10:25:59.178Z,21.40
2023-01-08T10:28:30.745Z,24.20
2023-01-08T10:31:05.086Z,28.30
2023-01-08T10:33:40.303Z,23.07
2023-01-08T10:36:11.601Z,28.27
2023-01-08T10:38:43.233Z,21.00
2023-01-08T10:41:14.385Z,27.20
2023-01-08T10:43:53.361Z,32.10
2023-01-08T10:46:25.034Z,21.93
2023-01-08T10:48:55.958Z,27.87
2023-01-08T10:51:26.308Z,25.50
2023-01-08T10:53:56.430Z,25.37
2023-01-08T10:56:26.705Z,19.10
2023-01-08T10:58:56.908Z,25.10
2023-01-08T11:01:27.301Z,23.73
2023-01-08T11:03:58.791Z,19.00
2023-01-08T11:06:28.791Z,22.13
2023-01-08T11:08:59.809Z,21.07
2023-01-08T11:11:35.016Z,19.73
2023-01-08T11:14:06.345Z,24.67
2023-01-08T11:16:38.108Z,22.20
2023-01-08T11:19:07.214Z,24.97
2023-01-08T11:21:37.017Z,26.07
2023-01-08T11:24:16.287Z,23.63
2023-01-08T11:26:48.985Z,21.93
2023-01-08T11:29:23.598Z,22.40
2023-01-08T11:31:57.029Z,27.07
2023-01-08T11:34:33.986Z,23.80
2023-01-08T11:37:10.414Z,21.40
2023-01-08T11:39:39.818Z,22.03
2023-01-08T11:42:20.266Z,20.50
2023-01-08T11:45:03.827Z,21.50
2023-01-08T11:47:47.379Z,20.87
2023-01-08T11:50:20.853Z,22.00
2023-01-08T11:53:00.810Z,25.20
2023-01-08T11:55:42.731Z,20.57
2023-01-08T11:58:31.660Z,23.17
2023-01-08T12:01:26.232Z,19.20
2023-01-08T12:04:11.734Z,21.07
2023-01-08T12:06:49.024Z,23.60
2023-01-08T12:09:27.611Z,22.10
2023-01-08T12:12:03.624Z,16.70
2023-01-08T12:14:52.453Z,27.50
2023-01-08T12:17:43.682Z,23.27
2023-01-08T12:20:22.366Z,15.20
2023-01-08T12:23:00.125Z,21.60
2023-01-08T12:26:06.327Z,23.70
2023-01-08T12:29:09.943Z,29.03
2023-01-08T12:32:02.955Z,22.70
2023-01-08T12:34:43.089Z,25.77
2023-01-08T12:37:19.210Z,26.37
2023-01-08T12:39:56.701Z,22.43
2023-01-08T12:42:29.142Z,23.03
2023-01-08T12:45:01.724Z,26.87
2023-01-08T12:47:33.788Z,24.30
2023-01-08T12:50:26.280Z,25.60
2023-01-08T12:52:59.513Z,24.43
2023-01-08T12:55:37.360Z,29.33
2023-01-08T12:58:21.331Z,22.17
2023-01-08T13:00:57.717Z,26.43
2023-01-08T13:03:29.368Z,32.87
2023-01-08T13:06:09.898Z,31.20
2023-01-08T13:08:40.095Z,30.10
2023-01-08T13:11:09.676Z,29.53
2023-01-08T13:13:41.849Z,17.93
2023-01-08T13:16:20.938Z,24.37
2023-01-08T13:18:57.484Z,32.90
2023-01-08T13:21:32.945Z,28.80
2023-01-08T13:24:03.215Z,25.23
2023-01-08T13:26:33.127Z,29.77
2023-01-08T13:29:39.282Z,27.20
2023-01-08T13:32:26.053Z,28.13
2023-01-08T13:35:18.992Z,29.20
2023-01-08T13:37:50.087Z,32.33
2023-01-08T13:40:40.768Z,32.83
2023-01-08T13:43:16.503Z,26.93
2023-01-08T13:45:48.152Z,30.23
2023-01-08T13:48:24.056Z,28.70
2023-01-08T13:50:52.785Z,35.73
2023-01-08T13:53:23.170Z,36.83
2023-01-08T13:55:59.265Z,37.67
2023-01-08T13:58:31.020Z,37.50
2023-01-08T14:01:00.529Z,37.80
2023-01-08T14:03:30.276Z,41.23
2023-01-08T14:06:08.141Z,40.73
2023-01-08T14:08:38.805Z,41.63
2023-01-08T14:11:07.154Z,46.10
2023-01-08T14:13:35.800Z,30.70
2023-01-08T14:16:06.972Z,41.00
2023-01-08T14:18:35.724Z,37.60
2023-01-08T14:21:04.583Z,41.10
2023-01-08T14:23:38.406Z,37.17
2023-01-08T14:26:10.436Z,42.13
2023-01-08T14:28:38.752Z,43.93
2023-01-08T14:31:07.111Z,38.03
2023-01-08T14:33:37.485Z,43.53
2023-01-08T14:36:08.501Z,48.23
2023-01-08T14:38:38.070Z,44.60
2023-01-08T14:41:08.881Z,42.97
2023-01-08T14:43:43.135Z,48.00
2023-01-08T14:46:20.366Z,53.63
2023-01-08T14:48:49.730Z,42.70
2023-01-08T14:51:24.295Z,52.63
2023-01-08T14:53:58.451Z,50.63
2023-01-08T14:56:32.496Z,44.13
2023-01-08T14:59:01.628Z,49.17
2023-01-08T15:01:33.470Z,39.30
2023-01-08T15:04:07.380Z,45.67
2023-01-08T15:06:35.755Z,44.87
2023-01-08T15:09:23.179Z,50.67
2023-01-08T15:11:54.856Z,56.23
2023-01-08T15:14:25.660Z,52.10
2023-01-08T15:16:55.958Z,55.13
2023-01-08T15:19:26.555Z,49.07
2023-01-08T15:21:58.328Z,49.80
2023-01-08T15:24:31.048Z,48.93
2023-01-08T15:27:00.822Z,56.03
2023-01-08T15:29:33.431Z,48.57
2023-01-08T15:32:12.177Z,47.30
2023-01-08T15:34:41.863Z,46.57
2023-01-08T15:37:10.139Z,47.37
2023-01-08T15:39:39.906Z,47.37
2023-01-08T15:42:36.272Z,58.00
2023-01-08T15:45:05.381Z,45.30
2023-01-08T15:47:33.641Z,53.53
2023-01-08T15:50:01.958Z,49.53
2023-01-08T15:52:30.871Z,52.47
2023-01-08T15:55:01.924Z,53.90
2023-01-08T15:57:31.315Z,52.53
2023-01-08T15:59:59.466Z,48.70
2023-01-08T16:02:27.816Z,49.50
2023-01-08T16:04:57.268Z,54.97
2023-01-08T16:07:25.479Z,47.20
2023-01-08T16:09:53.655Z,44.43
2023-01-08T16:12:23.208Z,49.67
2023-01-08T16:14:51.362Z,46.73
2023-01-08T16:17:19.554Z,52.30
2023-01-08T16:19:47.722Z,52.83
2023-01-08T16:22:15.879Z,54.23
2023-01-08T16:24:46.390Z,53.37
2023-01-08T16:27:14.584Z,49.03
2023-01-08T16:29:44.138Z,55.83
2023-01-08T16:32:12.534Z,56.83
2023-01-08T16:34:40.786Z,67.53
2023-01-08T16:37:09.070Z,52.70
2023-01-08T16:39:37.374Z,57.53
2023-01-08T16:42:05.799Z,59.67
2023-01-08T16:44:37.455Z,54.90
2023-01-08T16:47:07.073Z,55.73
2023-01-08T16:49:35.981Z,52.33
2023-01-08T16:52:04.162Z,52.73
2023-01-08T16:54:33.079Z,49.80
2023-01-08T16:57:01.256Z,51.23
2023-01-08T16:59:29.425Z,56.80
2023-01-08T17:01:57.663Z,51.63
2023-01-08T17:04:27.377Z,51.43
2023-01-08T17:06:55.587Z,48.70
2023-01-08T17:09:23.773Z,51.10
2023-01-08T17:11:52.144Z,55.67
2023-01-08T17:14:20.345Z,54.20
2023-01-08T17:16:49.161Z,48.50
2023-01-08T17:19:20.581Z,49.60
2023-01-08T17:21:50.938Z,51.97
2023-01-08T17:24:19.155Z,51.93
2023-01-08T17:26:47.377Z,46.43
2023-01-08T17:29:15.604Z,54.90
2023-01-08T17:31:43.868Z,48.60
2023-01-08T17:34:14.501Z,58.37
2023-01-08T17:36:42.912Z,54.67
2023-01-08T17:39:12.996Z,52.47
2023-01-08T17:41:58.717Z,54.67
2023-01-08T17:44:27.512Z,49.53
2023-01-08T17:46:55.771Z,46.37
2023-01-08T17:49:24.091Z,53.03
2023-01-08T17:51:53.408Z,53.17
2023-01-08T17:54:25.847Z,52.87
2023-01-08T17:56:54.567Z,57.00
2023-01-08T17:59:23.232Z,52.83
2023-01-08T18:01:53.582Z,56.40
2023-01-08T18:04:21.801Z,53.60
2023-01-08T18:06:55.813Z,52.30
2023-01-08T18:09:25.695Z,51.37
2023-01-08T18:11:54.005Z,52.63
2023-01-08T18:14:22.926Z,53.17
2023-01-08T18:16:53.054Z,48.63
2023-01-08T18:19:21.903Z,53.13
2023-01-08T18:21:50.175Z,53.20
2023-01-08T18:24:18.375Z,40.93
2023-01-08T18:26:49.472Z,52.30
2023-01-08T18:29:18.039Z,45.33
2023-01-08T18:31:46.568Z,50.17
2023-01-08T18:34:15.223Z,47.97
2023-01-08T18:36:43.775Z,50.40
2023-01-08T18:39:13.419Z,49.73
2023-01-08T18:41:59.205Z,56.37
2023-01-08T18:44:29.063Z,50.97
2023-01-08T18:46:57.452Z,45.20
2023-01-08T18:49:27.514Z,54.07
2023-01-08T18:51:55.845Z,50.77
2023-01-08T18:54:24.224Z,49.17
2023-01-08T18:56:52.420Z,47.37
2023-01-08T18:59:20.652Z,49.83
2023-01-08T19:01:52.356Z,53.77
2023-01-08T19:04:20.708Z,48.33
2023-01-08T19:06:48.976Z,56.50
2023-01-08T19:09:17.870Z,52.10
2023-01-08T19:11:46.049Z,55.70
2023-01-08T19:14:14.912Z,53.17
2023-01-08T19:16:48.336Z,53.97
2023-01-08T19:19:18.434Z,52.60
2023-01-08T19:21:46.697Z,54.20
2023-01-08T19:24:15.104Z,56.40
2023-01-08T19:26:43.475Z,50.80
2023-01-08T19:29:11.840Z,57.33
2023-01-08T19:31:41.477Z,53.67
2023-01-08T19:34:11.931Z,57.43
2023-01-08T19:36:43.746Z,50.90
2023-01-08T19:39:12.375Z,58.03
2023-01-08T19:41:58.203Z,54.87
2023-01-08T19:44:26.599Z,55.60
2023-01-08T19:46:54.771Z,53.73
2023-01-08T19:49:23.696Z,65.33
2023-01-08T19:51:53.300Z,64.63
2023-01-08T19:54:23.714Z,66.80
2023-01-08T19:56:51.885Z,62.80
2023-01-08T19:59:20.371Z,55.87
2023-01-08T20:01:48.782Z,48.60
2023-01-08T20:04:17.278Z,60.50
2023-01-08T20:06:45.577Z,58.50
2023-01-08T20:09:15.279Z,66.27
2023-01-08T20:11:43.437Z,54.00
2023-01-08T20:14:11.855Z,60.07
2023-01-08T20:16:43.841Z,65.80
2023-01-08T20:19:11.980Z,65.47
2023-01-08T20:21:40.125Z,67.43
2023-01-08T20:24:12.081Z,65.20
2023-01-08T20:26:43.308Z,72.03
2023-01-08T20:29:12.514Z,67.33
2023-01-08T20:31:41.188Z,67.53
2023-01-08T20:34:14.432Z,68.77
2023-01-08T20:36:43.537Z,66.77
2023-01-08T20:39:17.019Z,65.60
2023-01-08T20:41:55.780Z,70.30
2023-01-08T20:44:31.812Z,60.53
2023-01-08T20:46:59.959Z,51.20
2023-01-08T20:49:29.765Z,60.70
2023-01-08T20:52:00.306Z,61.80
2023-01-08T20:54:30.439Z,65.40
2023-01-08T20:57:01.028Z,69.87
2023-01-08T20:59:29.611Z,67.03
2023-01-08T21:01:57.900Z,63.00
2023-01-08T21:04:27.593Z,65.20
2023-01-08T21:06:55.813Z,75.10
2023-01-08T21:09:24.063Z,52.23
2023-01-08T21:11:52.218Z,69.67
2023-01-08T21:14:21.728Z,61.93
2023-01-08T21:16:51.378Z,59.07
2023-01-08T21:19:19.498Z,64.37
2023-01-08T21:21:47.692Z,59.00
2023-01-08T21:24:16.533Z,65.83
2023-01-08T21:26:46.870Z,55.53
2023-01-08T21:29:16.981Z,64.03
2023-01-08T21:31:46.627Z,66.73
2023-01-08T21:34:14.832Z,73.20
2023-01-08T21:36:42.998Z,65.37
2023-01-08T21:39:11.453Z,62.07
2023-01-08T21:41:57.214Z,61.37
2023-01-08T21:44:44.493Z,60.20
2023-01-08T21:47:16.496Z,57.80
2023-01-08T21:49:45.345Z,69.93
2023-01-08T21:52:30.907Z,66.63
2023-01-08T21:54:59.207Z,69.90
2023-01-08T21:57:28.293Z,67.57
2023-01-08T21:59:57.564Z,69.63
2023-01-08T22:02:27.148Z,64.17
2023-01-08T22:04:56.502Z,63.27
2023-01-08T22:07:25.088Z,60.40
2023-01-08T22:09:53.717Z,61.70
2023-01-08T22:12:22.753Z,63.17
2023-01-08T22:14:53.109Z,69.00
2023-01-08T22:17:21.629Z,68.13
2023-01-08T22:19:51.384Z,62.10
2023-01-08T22:22:19.923Z,62.63
2023-01-08T22:24:48.032Z,66.70
2023-01-08T22:27:16.947Z,61.83
2023-01-08T22:29:45.138Z,64.77
2023-01-08T22:32:13.284Z,60.80
2023-01-08T22:34:41.666Z,63.23
2023-01-08T22:37:11.188Z,59.83
2023-01-08T22:39:39.349Z,63.03
2023-01-08T22:42:07.489Z,59.47
2023-01-08T22:44:35.868Z,62.67
2023-01-08T22:47:06.038Z,66.63
2023-01-08T22:49:34.517Z,58.93
2023-01-08T22:52:02.650Z,59.80
2023-01-08T22:54:32.140Z,61.00
2023-01-08T22:57:00.257Z,59.40
2023-01-08T22:59:28.389Z,65.50
2023-01-08T23:01:56.608Z,66.63
2023-01-08T23:04:24.749Z,58.63
2023-01-08T23:06:53.031Z,67.17
2023-01-08T23:09:21.166Z,63.13
2023-01-08T23:11:50.779Z,63.33
2023-01-08T23:14:19.012Z,73.07
2023-01-08T23:16:47.199Z,68.37
2023-01-08T23:19:15.452Z,66.67
2023-01-08T23:21:43.615Z,68.10
2023-01-08T23:24:14.390Z,62.67
2023-01-08T23:26:43.156Z,74.83
2023-01-08T23:29:12.671Z,61.43
2023-01-08T23:31:43.132Z,63.83
2023-01-08T23:34:11.855Z,59.43
2023-01-08T23:36:40.757Z,72.60
2023-01-08T23:39:09.339Z,65.87
2023-01-08T23:41:37.536Z,74.03
2023-01-08T23:44:07.824Z,71.17
2023-01-08T23:46:37.740Z,67.97
2023-01-08T23:49:07.130Z,69.83
2023-01-08T23:51:35.711Z,72.67
2023-01-08T23:54:04.347Z,66.37
2023-01-08T23:56:33.064Z,69.07
2023-01-08T23:59:01.232Z,62.63
